Ana Sayfa
METAR-TAF:

METAR-TAF

Havaalanları :

St. Catharines, Ontario, Kanada

Enlem: 43-12N, Boylam: 079-10W, yükseklik: 98 m

Güncel hava durumu gözlemi

Rapor saat 13:00 UTC de 54 dakika önce yapıldı.
Rüzgar kuzey/kuzeydoğudan 8 kt
Sıcaklık -4°C
Nem 86%
Basınç 1023 hPa
Görüş mesafesi: 24.1 km
1700 ft yükseklikte çok bulutlu

METAR: CYSN 291300Z 02008KT 15SM OVC017 M04/M06 A3021 RMK SC8 SLP236

Saat: 08:54 (13:54 UTC)

Tahmin

Rapor saat 13:38 UTC de 16 dakika önce yapıldı.
Ayın 29'si saat 14 UTC'den ayın 30'si saat 02 UTC'ye kadar geçerli Tahmin
Rüzgar kuzeydan 10 kt
Görüş mesafesi: 10 km
1500 ft yükseklikte çok bulutlu
Dönüşüyor
ayın 29'si saat 20 UTC'den ayın 29'si saat 22 UTC'ye kadar
Rüzgar kuzeydoğudan 7 kt
2000 ft yükseklikte az bulutlu

TAF: CYSN 291338Z 2914/3002 36010KT P6SM OVC015 BECMG 2920/2922 04007KT FEW020 RMK NXT FCST BY 292000Z

4.000'den fazla havaalanı için hava durumu gözlemleri ve tahminleri (METAR ve TAF raporları).

Kullanılabilir istasyonlar harita üzerinde sarı ve kırmızı noktalarla gösterilir.

İstasyonun adını görmek için fareyi noktanın üzerinde gezdirin.

Sonrasında hava gözlem ve tahminlerini görmek için tıklayın.

Haritayı değiştirmek için: yaklaştırmak için siyah artı işaretli yeşil düğmeye ve uzaklaştırmak için de eksi işaretli düğmeye hızla tıklayın; bitişik haritalar için yeşil okları kullanın.


METAR-TAF: